sensor_id;sensor_type;location;lat;lon;timestamp;pressure;altitude;pressure_sealevel;temperature;humidity
80585;BME280;70137;56.482;9.154;2023-08-24T00:01:15;101652.72;;;14.79;84.46
80585;BME280;70137;56.482;9.154;2023-08-24T00:03:43;101651.09;;;14.78;84.52
80585;BME280;70137;56.482;9.154;2023-08-24T00:06:09;101652.06;;;14.77;84.93
80585;BME280;70137;56.482;9.154;2023-08-24T00:08:35;101641.78;;;14.75;84.36
80585;BME280;70137;56.482;9.154;2023-08-24T00:11:00;101642.59;;;14.76;84.25
80585;BME280;70137;56.482;9.154;2023-08-24T00:13:26;101650.59;;;14.74;84.07
80585;BME280;70137;56.482;9.154;2023-08-24T00:15:53;101643.75;;;14.73;84.10
80585;BME280;70137;56.482;9.154;2023-08-24T00:18:19;101645.53;;;14.73;84.34
80585;BME280;70137;56.482;9.154;2023-08-24T00:20:44;101642.28;;;14.71;84.61
80585;BME280;70137;56.482;9.154;2023-08-24T00:23:09;101646.88;;;14.69;84.46
80585;BME280;70137;56.482;9.154;2023-08-24T00:25:35;101647.19;;;14.66;83.96
80585;BME280;70137;56.482;9.154;2023-08-24T00:28:00;101654.19;;;14.65;84.55
80585;BME280;70137;56.482;9.154;2023-08-24T00:30:25;101658.59;;;14.65;84.86
80585;BME280;70137;56.482;9.154;2023-08-24T00:32:51;101646.53;;;14.64;84.47
80585;BME280;70137;56.482;9.154;2023-08-24T00:35:16;101649.16;;;14.64;84.64
80585;BME280;70137;56.482;9.154;2023-08-24T00:37:41;101655.53;;;14.61;85.12
80585;BME280;70137;56.482;9.154;2023-08-24T00:40:07;101661.56;;;14.62;85.13
80585;BME280;70137;56.482;9.154;2023-08-24T00:42:42;101655.53;;;14.61;85.08
80585;BME280;70137;56.482;9.154;2023-08-24T00:45:08;101657.97;;;14.63;84.99
80585;BME280;70137;56.482;9.154;2023-08-24T00:47:34;101663.00;;;14.64;85.11
80585;BME280;70137;56.482;9.154;2023-08-24T00:50:01;101664.81;;;14.64;85.69
80585;BME280;70137;56.482;9.154;2023-08-24T00:52:28;101662.38;;;14.62;85.11
80585;BME280;70137;56.482;9.154;2023-08-24T00:54:54;101664.34;;;14.60;85.28
80585;BME280;70137;56.482;9.154;2023-08-24T00:57:20;101664.81;;;14.55;84.96
80585;BME280;70137;56.482;9.154;2023-08-24T00:59:46;101667.78;;;14.52;85.48
80585;BME280;70137;56.482;9.154;2023-08-24T01:02:12;101674.31;;;14.48;84.86
80585;BME280;70137;56.482;9.154;2023-08-24T01:04:37;101668.44;;;14.46;84.95
80585;BME280;70137;56.482;9.154;2023-08-24T01:07:02;101669.56;;;14.44;85.26
80585;BME280;70137;56.482;9.154;2023-08-24T01:09:28;101675.94;;;14.41;85.53
80585;BME280;70137;56.482;9.154;2023-08-24T01:12:04;101676.09;;;14.40;85.01
80585;BME280;70137;56.482;9.154;2023-08-24T01:14:50;101670.19;;;14.38;85.01
80585;BME280;70137;56.482;9.154;2023-08-24T01:17:21;101664.50;;;14.34;84.77
80585;BME280;70137;56.482;9.154;2023-08-24T01:19:48;101663.06;;;14.31;84.77
80585;BME280;70137;56.482;9.154;2023-08-24T01:24:58;101669.09;;;14.24;84.37
80585;BME280;70137;56.482;9.154;2023-08-24T01:27:26;101672.69;;;14.23;84.29
80585;BME280;70137;56.482;9.154;2023-08-24T01:29:53;101663.56;;;14.19;84.24
80585;BME280;70137;56.482;9.154;2023-08-24T01:32:23;101663.88;;;14.16;83.84
80585;BME280;70137;56.482;9.154;2023-08-24T01:34:48;101668.44;;;14.14;84.04
80585;BME280;70137;56.482;9.154;2023-08-24T01:37:14;101666.00;;;14.12;84.07
80585;BME280;70137;56.482;9.154;2023-08-24T01:39:46;101665.19;;;14.12;83.48
80585;BME280;70137;56.482;9.154;2023-08-24T01:42:19;101662.59;;;14.12;83.60
80585;BME280;70137;56.482;9.154;2023-08-24T01:44:49;101663.56;;;14.11;83.73
80585;BME280;70137;56.482;9.154;2023-08-24T01:47:17;101661.25;;;14.08;83.59
80585;BME280;70137;56.482;9.154;2023-08-24T01:49:43;101660.78;;;14.04;83.60
80585;BME280;70137;56.482;9.154;2023-08-24T01:52:09;101665.66;;;13.99;83.01
80585;BME280;70137;56.482;9.154;2023-08-24T01:54:35;101661.94;;;13.93;82.87
80585;BME280;70137;56.482;9.154;2023-08-24T01:57:01;101671.19;;;13.88;82.33
80585;BME280;70137;56.482;9.154;2023-08-24T01:59:26;101673.66;;;13.81;82.11
80585;BME280;70137;56.482;9.154;2023-08-24T02:01:52;101668.91;;;13.77;82.30
80585;BME280;70137;56.482;9.154;2023-08-24T02:04:17;101670.38;;;13.71;81.96
80585;BME280;70137;56.482;9.154;2023-08-24T02:06:42;101670.84;;;13.66;82.53
80585;BME280;70137;56.482;9.154;2023-08-24T02:09:08;101672.31;;;13.61;82.11
80585;BME280;70137;56.482;9.154;2023-08-24T02:11:33;101665.94;;;13.55;82.23
80585;BME280;70137;56.482;9.154;2023-08-24T02:13:58;101667.38;;;13.50;82.16
80585;BME280;70137;56.482;9.154;2023-08-24T02:16:25;101657.47;;;13.45;81.59
80585;BME280;70137;56.482;9.154;2023-08-24T02:18:50;101663.81;;;13.42;81.92
80585;BME280;70137;56.482;9.154;2023-08-24T02:21:16;101658.25;;;13.37;81.85
80585;BME280;70137;56.482;9.154;2023-08-24T02:23:41;101656.28;;;13.31;82.12
80585;BME280;70137;56.482;9.154;2023-08-24T02:26:07;101658.56;;;13.26;81.93
80585;BME280;70137;56.482;9.154;2023-08-24T02:28:33;101652.16;;;13.21;81.66
80585;BME280;70137;56.482;9.154;2023-08-24T02:31:02;101651.00;;;13.15;81.86
80585;BME280;70137;56.482;9.154;2023-08-24T02:33:28;101654.38;;;13.07;81.91
80585;BME280;70137;56.482;9.154;2023-08-24T02:35:54;101652.25;;;13.03;81.58
80585;BME280;70137;56.482;9.154;2023-08-24T02:38:20;101663.28;;;12.97;82.09
80585;BME280;70137;56.482;9.154;2023-08-24T02:40:45;101643.91;;;12.91;81.48
80585;BME280;70137;56.482;9.154;2023-08-24T02:43:10;101646.16;;;12.86;81.53
80585;BME280;70137;56.482;9.154;2023-08-24T02:45:36;101644.84;;;12.82;81.95
80585;BME280;70137;56.482;9.154;2023-08-24T02:48:01;101643.69;;;12.76;81.52
80585;BME280;70137;56.482;9.154;2023-08-24T02:50:26;101648.53;;;12.71;81.63
80585;BME280;70137;56.482;9.154;2023-08-24T02:52:52;101644.44;;;12.69;81.43
80585;BME280;70137;56.482;9.154;2023-08-24T02:55:17;101638.75;;;12.65;82.12
80585;BME280;70137;56.482;9.154;2023-08-24T02:57:44;101639.03;;;12.62;81.61
80585;BME280;70137;56.482;9.154;2023-08-24T03:00:09;101642.63;;;12.61;82.59
80585;BME280;70137;56.482;9.154;2023-08-24T03:02:35;101636.09;;;12.57;82.19
80585;BME280;70137;56.482;9.154;2023-08-24T03:05:02;101632.16;;;12.53;82.44
80585;BME280;70137;56.482;9.154;2023-08-24T03:07:27;101640.28;;;12.50;82.71
80585;BME280;70137;56.482;9.154;2023-08-24T03:09:52;101631.81;;;12.48;82.32
80585;BME280;70137;56.482;9.154;2023-08-24T03:12:18;101631.28;;;12.44;82.15
80585;BME280;70137;56.482;9.154;2023-08-24T03:14:43;101636.81;;;12.41;81.50
80585;BME280;70137;56.482;9.154;2023-08-24T03:17:08;101632.72;;;12.39;82.62
80585;BME280;70137;56.482;9.154;2023-08-24T03:19:34;101634.69;;;12.37;82.89
80585;BME280;70137;56.482;9.154;2023-08-24T03:21:59;101641.78;;;12.35;82.95
80585;BME280;70137;56.482;9.154;2023-08-24T03:24:24;101631.41;;;12.35;83.39
80585;BME280;70137;56.482;9.154;2023-08-24T03:26:50;101630.72;;;12.32;82.44
80585;BME280;70137;56.482;9.154;2023-08-24T03:29:15;101632.69;;;12.30;82.99
80585;BME280;70137;56.482;9.154;2023-08-24T03:31:40;101638.03;;;12.29;82.88
80585;BME280;70137;56.482;9.154;2023-08-24T03:34:06;101629.69;;;12.25;82.65
80585;BME280;70137;56.482;9.154;2023-08-24T03:36:31;101629.19;;;12.22;83.12
80585;BME280;70137;56.482;9.154;2023-08-24T03:38:56;101622.53;;;12.19;82.65
80585;BME280;70137;56.482;9.154;2023-08-24T03:41:22;101624.47;;;12.17;82.58
80585;BME280;70137;56.482;9.154;2023-08-24T03:43:47;101627.19;;;12.16;82.26
80585;BME280;70137;56.482;9.154;2023-08-24T03:46:12;101623.13;;;12.13;82.58
80585;BME280;70137;56.482;9.154;2023-08-24T03:48:37;101627.50;;;12.13;82.58
80585;BME280;70137;56.482;9.154;2023-08-24T03:51:03;101632.22;;;12.09;82.40
80585;BME280;70137;56.482;9.154;2023-08-24T03:53:28;101630.56;;;12.08;83.48
80585;BME280;70137;56.482;9.154;2023-08-24T03:55:54;101628.25;;;12.05;82.96
80585;BME280;70137;56.482;9.154;2023-08-24T03:58:19;101627.59;;;12.03;83.19
80585;BME280;70137;56.482;9.154;2023-08-24T04:00:45;101635.56;;;12.01;83.33
80585;BME280;70137;56.482;9.154;2023-08-24T04:03:11;101627.91;;;12.00;82.61
80585;BME280;70137;56.482;9.154;2023-08-24T04:05:36;101635.06;;;11.98;82.85
80585;BME280;70137;56.482;9.154;2023-08-24T04:08:02;101633.41;;;11.97;83.04
80585;BME280;70137;56.482;9.154;2023-08-24T04:10:28;101635.31;;;11.95;82.82
80585;BME280;70137;56.482;9.154;2023-08-24T04:12:54;101629.47;;;11.93;82.68
80585;BME280;70137;56.482;9.154;2023-08-24T04:15:19;101638.09;;;11.93;82.93
80585;BME280;70137;56.482;9.154;2023-08-24T04:17:44;101628.00;;;11.90;83.37
80585;BME280;70137;56.482;9.154;2023-08-24T04:20:10;101624.75;;;11.88;82.63
80585;BME280;70137;56.482;9.154;2023-08-24T04:22:36;101628.31;;;11.87;82.71
80585;BME280;70137;56.482;9.154;2023-08-24T04:25:01;101623.91;;;11.88;83.19
80585;BME280;70137;56.482;9.154;2023-08-24T04:27:27;101622.41;;;11.85;82.64
80585;BME280;70137;56.482;9.154;2023-08-24T04:29:52;101623.22;;;11.86;82.55
80585;BME280;70137;56.482;9.154;2023-08-24T04:32:18;101619.81;;;11.85;83.08
80585;BME280;70137;56.482;9.154;2023-08-24T04:34:43;101625.00;;;11.85;82.82
80585;BME280;70137;56.482;9.154;2023-08-24T04:37:09;101622.88;;;11.81;82.77
80585;BME280;70137;56.482;9.154;2023-08-24T04:39:34;101620.13;;;11.82;82.35
80585;BME280;70137;56.482;9.154;2023-08-24T04:42:00;101619.31;;;11.82;82.29
80585;BME280;70137;56.482;9.154;2023-08-24T04:44:25;101621.09;;;11.81;82.77
80585;BME280;70137;56.482;9.154;2023-08-24T04:46:51;101621.91;;;11.82;83.22
80585;BME280;70137;56.482;9.154;2023-08-24T04:49:16;101619.31;;;11.82;82.83
80585;BME280;70137;56.482;9.154;2023-08-24T04:51:41;101626.13;;;11.83;82.66
80585;BME280;70137;56.482;9.154;2023-08-24T04:54:06;101626.94;;;11.83;83.52
80585;BME280;70137;56.482;9.154;2023-08-24T04:56:32;101628.44;;;11.86;83.46
80585;BME280;70137;56.482;9.154;2023-08-24T04:58:58;101635.41;;;11.85;82.90
80585;BME280;70137;56.482;9.154;2023-08-24T05:01:25;101622.25;;;11.87;83.04
80585;BME280;70137;56.482;9.154;2023-08-24T05:03:52;101632.38;;;11.90;83.16
80585;BME280;70137;56.482;9.154;2023-08-24T05:06:17;101623.47;;;11.92;83.52
80585;BME280;70137;56.482;9.154;2023-08-24T05:08:43;101623.97;;;11.96;83.64
80585;BME280;70137;56.482;9.154;2023-08-24T05:11:17;101614.38;;;11.96;83.16
80585;BME280;70137;56.482;9.154;2023-08-24T05:13:43;101619.31;;;11.99;83.45
80585;BME280;70137;56.482;9.154;2023-08-24T05:16:09;101619.66;;;12.04;83.17
80585;BME280;70137;56.482;9.154;2023-08-24T05:18:35;101620.19;;;12.08;82.97
80585;BME280;70137;56.482;9.154;2023-08-24T05:21:04;101621.50;;;12.12;82.83
80585;BME280;70137;56.482;9.154;2023-08-24T05:23:30;101629.94;;;12.14;82.80
80585;BME280;70137;56.482;9.154;2023-08-24T05:26:00;101627.06;;;12.17;82.51
80585;BME280;70137;56.482;9.154;2023-08-24T05:28:26;101623.50;;;12.18;83.51
80585;BME280;70137;56.482;9.154;2023-08-24T05:30:52;101631.66;;;12.23;82.74
80585;BME280;70137;56.482;9.154;2023-08-24T05:33:19;101636.41;;;12.28;83.31
80585;BME280;70137;56.482;9.154;2023-08-24T05:35:45;101632.53;;;12.32;82.81
80585;BME280;70137;56.482;9.154;2023-08-24T05:38:10;101629.97;;;12.40;82.93
80585;BME280;70137;56.482;9.154;2023-08-24T05:40:36;101631.81;;;12.48;81.98
80585;BME280;70137;56.482;9.154;2023-08-24T05:43:02;101630.09;;;12.56;81.80
80585;BME280;70137;56.482;9.154;2023-08-24T05:45:27;101632.88;;;12.63;82.39
80585;BME280;70137;56.482;9.154;2023-08-24T05:47:53;101627.72;;;12.71;81.42
80585;BME280;70137;56.482;9.154;2023-08-24T05:50:18;101631.97;;;12.80;81.82
80585;BME280;70137;56.482;9.154;2023-08-24T05:52:43;101639.50;;;12.92;81.22
80585;BME280;70137;56.482;9.154;2023-08-24T05:55:09;101640.53;;;12.99;81.98
80585;BME280;70137;56.482;9.154;2023-08-24T05:57:34;101637.94;;;13.07;81.19
80585;BME280;70137;56.482;9.154;2023-08-24T06:00:00;101636.19;;;13.15;80.69
80585;BME280;70137;56.482;9.154;2023-08-24T06:02:25;101632.97;;;13.22;80.74
80585;BME280;70137;56.482;9.154;2023-08-24T06:04:50;101635.31;;;13.33;81.34
80585;BME280;70137;56.482;9.154;2023-08-24T06:07:16;101636.78;;;13.43;81.07
80585;BME280;70137;56.482;9.154;2023-08-24T06:09:42;101628.66;;;13.55;80.69
80585;BME280;70137;56.482;9.154;2023-08-24T06:12:08;101627.38;;;13.67;80.75
80585;BME280;70137;56.482;9.154;2023-08-24T06:14:33;101628.69;;;13.79;80.44
80585;BME280;70137;56.482;9.154;2023-08-24T06:16:58;101632.09;;;13.88;78.73
80585;BME280;70137;56.482;9.154;2023-08-24T06:19:23;101630.31;;;13.96;79.09
80585;BME280;70137;56.482;9.154;2023-08-24T06:21:49;101621.50;;;14.06;79.55
80585;BME280;70137;56.482;9.154;2023-08-24T06:24:14;101614.03;;;14.11;79.59
80585;BME280;70137;56.482;9.154;2023-08-24T06:26:40;101616.59;;;14.27;79.37
80585;BME280;70137;56.482;9.154;2023-08-24T06:29:05;101618.19;;;14.44;77.86
80585;BME280;70137;56.482;9.154;2023-08-24T06:31:30;101621.81;;;14.51;79.01
80585;BME280;70137;56.482;9.154;2023-08-24T06:33:56;101618.53;;;14.57;77.97
80585;BME280;70137;56.482;9.154;2023-08-24T06:36:22;101622.41;;;14.70;77.86
80585;BME280;70137;56.482;9.154;2023-08-24T06:38:47;101625.91;;;14.85;77.58
80585;BME280;70137;56.482;9.154;2023-08-24T06:41:12;101627.03;;;14.99;77.38
80585;BME280;70137;56.482;9.154;2023-08-24T06:43:38;101639.50;;;15.11;76.70
80585;BME280;70137;56.482;9.154;2023-08-24T06:46:05;101628.00;;;15.29;77.27
80585;BME280;70137;56.482;9.154;2023-08-24T06:48:33;101630.91;;;15.34;76.53
80585;BME280;70137;56.482;9.154;2023-08-24T06:50:59;101625.22;;;15.30;76.52
80585;BME280;70137;56.482;9.154;2023-08-24T06:53:24;101632.38;;;15.36;75.66
80585;BME280;70137;56.482;9.154;2023-08-24T06:55:54;101626.34;;;15.36;74.65
80585;BME280;70137;56.482;9.154;2023-08-24T06:58:20;101622.75;;;15.37;75.39
80585;BME280;70137;56.482;9.154;2023-08-24T07:00:45;101621.34;;;15.49;75.05
80585;BME280;70137;56.482;9.154;2023-08-24T07:03:10;101622.41;;;15.63;74.61
80585;BME280;70137;56.482;9.154;2023-08-24T07:05:36;101617.44;;;15.76;74.74
80585;BME280;70137;56.482;9.154;2023-08-24T07:08:01;101617.63;;;15.89;72.82
80585;BME280;70137;56.482;9.154;2023-08-24T07:10:28;101628.22;;;15.96;73.04
80585;BME280;70137;56.482;9.154;2023-08-24T07:12:53;101632.75;;;16.02;71.63
80585;BME280;70137;56.482;9.154;2023-08-24T07:15:18;101629.59;;;16.07;72.65
80585;BME280;70137;56.482;9.154;2023-08-24T07:17:44;101623.56;;;16.21;72.85
80585;BME280;70137;56.482;9.154;2023-08-24T07:20:09;101620.25;;;16.42;73.87
80585;BME280;70137;56.482;9.154;2023-08-24T07:22:36;101625.28;;;16.58;71.91
80585;BME280;70137;56.482;9.154;2023-08-24T07:25:01;101624.59;;;16.64;70.32
80585;BME280;70137;56.482;9.154;2023-08-24T07:27:34;101632.72;;;16.69;71.33
80585;BME280;70137;56.482;9.154;2023-08-24T07:30:00;101636.78;;;16.86;71.73
80585;BME280;70137;56.482;9.154;2023-08-24T07:32:28;101637.66;;;17.08;71.56
80585;BME280;70137;56.482;9.154;2023-08-24T07:34:53;101621.59;;;17.33;70.86
80585;BME280;70137;56.482;9.154;2023-08-24T07:37:19;101635.78;;;17.38;70.63
80585;BME280;70137;56.482;9.154;2023-08-24T07:39:44;101639.56;;;17.36;70.26
80585;BME280;70137;56.482;9.154;2023-08-24T07:42:09;101634.63;;;17.26;69.57
80585;BME280;70137;56.482;9.154;2023-08-24T07:44:35;101636.41;;;17.40;69.70
80585;BME280;70137;56.482;9.154;2023-08-24T07:47:01;101631.06;;;17.34;67.45
80585;BME280;70137;56.482;9.154;2023-08-24T07:49:26;101647.59;;;17.13;67.38
80585;BME280;70137;56.482;9.154;2023-08-24T07:51:51;101646.44;;;17.01;68.48
80585;BME280;70137;56.482;9.154;2023-08-24T07:54:17;101645.91;;;17.27;67.22
80585;BME280;70137;56.482;9.154;2023-08-24T07:56:42;101639.56;;;17.36;66.62
80585;BME280;70137;56.482;9.154;2023-08-24T07:59:07;101638.13;;;17.55;67.18
80585;BME280;70137;56.482;9.154;2023-08-24T08:01:33;101635.13;;;17.72;65.52
80585;BME280;70137;56.482;9.154;2023-08-24T08:03:58;101631.44;;;17.88;64.32
80585;BME280;70137;56.482;9.154;2023-08-24T08:06:25;101625.34;;;18.09;66.84
80585;BME280;70137;56.482;9.154;2023-08-24T08:08:52;101626.22;;;18.23;63.97
80585;BME280;70137;56.482;9.154;2023-08-24T08:11:17;101632.78;;;18.34;61.41
80585;BME280;70137;56.482;9.154;2023-08-24T08:13:43;101631.19;;;18.39;63.12
80585;BME280;70137;56.482;9.154;2023-08-24T08:16:09;101628.06;;;18.57;64.40
80585;BME280;70137;56.482;9.154;2023-08-24T08:18:36;101622.31;;;18.75;63.64
80585;BME280;70137;56.482;9.154;2023-08-24T08:21:08;101613.72;;;18.94;64.26
80585;BME280;70137;56.482;9.154;2023-08-24T08:23:34;101615.34;;;19.08;60.65
80585;BME280;70137;56.482;9.154;2023-08-24T08:25:59;101623.66;;;19.05;61.04
80585;BME280;70137;56.482;9.154;2023-08-24T08:28:24;101628.72;;;19.20;62.29
80585;BME280;70137;56.482;9.154;2023-08-24T08:30:50;101624.16;;;19.42;62.21
80585;BME280;70137;56.482;9.154;2023-08-24T08:33:15;101632.84;;;19.49;61.49
80585;BME280;70137;56.482;9.154;2023-08-24T08:35:40;101639.78;;;19.70;60.79
80585;BME280;70137;56.482;9.154;2023-08-24T08:38:06;101631.50;;;19.80;60.09
80585;BME280;70137;56.482;9.154;2023-08-24T08:40:36;101619.13;;;19.67;57.41
80585;BME280;70137;56.482;9.154;2023-08-24T08:43:02;101633.53;;;19.71;60.61
80585;BME280;70137;56.482;9.154;2023-08-24T08:45:28;101635.53;;;19.76;59.85
80585;BME280;70137;56.482;9.154;2023-08-24T08:47:59;101634.13;;;19.80;58.25
80585;BME280;70137;56.482;9.154;2023-08-24T08:50:25;101627.66;;;19.82;58.43
80585;BME280;70137;56.482;9.154;2023-08-24T08:52:50;101634.13;;;19.93;58.58
80585;BME280;70137;56.482;9.154;2023-08-24T08:55:17;101630.88;;;20.17;57.70
80585;BME280;70137;56.482;9.154;2023-08-24T08:57:42;101631.28;;;20.14;55.68
80585;BME280;70137;56.482;9.154;2023-08-24T09:00:12;101633.53;;;19.91;54.89
80585;BME280;70137;56.482;9.154;2023-08-24T09:02:42;101629.66;;;19.93;58.36
80585;BME280;70137;56.482;9.154;2023-08-24T09:05:08;101627.63;;;20.15;59.00
80585;BME280;70137;56.482;9.154;2023-08-24T09:07:34;101633.28;;;20.39;56.94
80585;BME280;70137;56.482;9.154;2023-08-24T09:10:00;101625.34;;;20.58;56.83
80585;BME280;70137;56.482;9.154;2023-08-24T09:12:25;101627.75;;;20.67;57.08
80585;BME280;70137;56.482;9.154;2023-08-24T09:14:51;101607.25;;;20.75;57.56
80585;BME280;70137;56.482;9.154;2023-08-24T09:17:22;101617.72;;;20.89;55.69
80585;BME280;70137;56.482;9.154;2023-08-24T09:19:50;101613.00;;;21.04;52.46
80585;BME280;70137;56.482;9.154;2023-08-24T09:22:19;101611.63;;;20.95;55.13
80585;BME280;70137;56.482;9.154;2023-08-24T09:24:44;101612.31;;;21.15;56.24
80585;BME280;70137;56.482;9.154;2023-08-24T09:27:21;101606.41;;;21.26;53.66
80585;BME280;70137;56.482;9.154;2023-08-24T09:29:53;101609.81;;;21.33;53.76
80585;BME280;70137;56.482;9.154;2023-08-24T09:32:27;101602.91;;;21.32;52.75
80585;BME280;70137;56.482;9.154;2023-08-24T09:34:54;101603.78;;;21.26;53.68
80585;BME280;70137;56.482;9.154;2023-08-24T09:37:19;101598.69;;;21.25;53.77
80585;BME280;70137;56.482;9.154;2023-08-24T09:39:45;101597.56;;;21.46;55.55
80585;BME280;70137;56.482;9.154;2023-08-24T09:42:11;101604.72;;;21.63;55.12
80585;BME280;70137;56.482;9.154;2023-08-24T09:44:37;101605.00;;;21.98;53.73
80585;BME280;70137;56.482;9.154;2023-08-24T09:47:08;101599.78;;;22.17;52.21
80585;BME280;70137;56.482;9.154;2023-08-24T09:49:34;101592.16;;;22.09;52.20
80585;BME280;70137;56.482;9.154;2023-08-24T09:51:59;101588.94;;;22.07;52.07
80585;BME280;70137;56.482;9.154;2023-08-24T09:54:26;101591.59;;;22.25;55.22
80585;BME280;70137;56.482;9.154;2023-08-24T09:56:54;101590.84;;;22.36;51.97
80585;BME280;70137;56.482;9.154;2023-08-24T09:59:21;101576.97;;;22.59;51.76
80585;BME280;70137;56.482;9.154;2023-08-24T10:01:50;101584.91;;;22.59;51.60
80585;BME280;70137;56.482;9.154;2023-08-24T10:04:29;101585.38;;;22.68;50.98
80585;BME280;70137;56.482;9.154;2023-08-24T10:07:10;101578.13;;;22.63;51.46
80585;BME280;70137;56.482;9.154;2023-08-24T10:09:58;101575.28;;;22.46;52.43
80585;BME280;70137;56.482;9.154;2023-08-24T10:12:28;101584.22;;;22.64;47.31
80585;BME280;70137;56.482;9.154;2023-08-24T10:14:59;101571.19;;;22.32;48.83
80585;BME280;70137;56.482;9.154;2023-08-24T10:17:30;101575.00;;;22.18;49.46
80585;BME280;70137;56.482;9.154;2023-08-24T10:19:58;101566.78;;;22.08;50.74
80585;BME280;70137;56.482;9.154;2023-08-24T10:22:26;101568.81;;;21.81;50.16
80585;BME280;70137;56.482;9.154;2023-08-24T10:24:53;101571.56;;;21.74;52.55
80585;BME280;70137;56.482;9.154;2023-08-24T10:27:20;101570.16;;;21.71;49.86
80585;BME280;70137;56.482;9.154;2023-08-24T10:29:50;101572.94;;;21.52;51.95
80585;BME280;70137;56.482;9.154;2023-08-24T10:32:15;101571.50;;;21.56;49.74
80585;BME280;70137;56.482;9.154;2023-08-24T10:34:41;101567.19;;;21.36;50.69
80585;BME280;70137;56.482;9.154;2023-08-24T10:37:11;101566.59;;;21.34;52.29
80585;BME280;70137;56.482;9.154;2023-08-24T10:39:38;101559.41;;;21.41;52.58
80585;BME280;70137;56.482;9.154;2023-08-24T10:42:10;101564.53;;;21.61;52.76
80585;BME280;70137;56.482;9.154;2023-08-24T10:44:37;101546.00;;;21.93;52.57
80585;BME280;70137;56.482;9.154;2023-08-24T10:47:08;101548.59;;;22.36;50.61
80585;BME280;70137;56.482;9.154;2023-08-24T10:49:37;101543.06;;;22.38;48.24
80585;BME280;70137;56.482;9.154;2023-08-24T10:52:19;101534.75;;;22.22;51.04
80585;BME280;70137;56.482;9.154;2023-08-24T10:54:47;101540.66;;;22.36;49.34
80585;BME280;70137;56.482;9.154;2023-08-24T10:57:38;101534.03;;;22.45;50.75
80585;BME280;70137;56.482;9.154;2023-08-24T11:02:49;101528.13;;;23.10;51.51
80585;BME280;70137;56.482;9.154;2023-08-24T11:05:23;101525.63;;;23.27;50.14
80585;BME280;70137;56.482;9.154;2023-08-24T11:07:50;101536.19;;;23.27;46.94
80585;BME280;70137;56.482;9.154;2023-08-24T11:10:16;101544.66;;;23.05;48.35
80585;BME280;70137;56.482;9.154;2023-08-24T11:15:33;101553.03;;;23.02;49.22
80585;BME280;70137;56.482;9.154;2023-08-24T11:20:37;101548.69;;;23.08;49.32
80585;BME280;70137;56.482;9.154;2023-08-24T11:23:02;101543.72;;;23.00;46.29
80585;BME280;70137;56.482;9.154;2023-08-24T11:25:28;101548.53;;;22.73;46.64
80585;BME280;70137;56.482;9.154;2023-08-24T11:27:54;101551.50;;;22.46;49.14
80585;BME280;70137;56.482;9.154;2023-08-24T11:30:19;101553.50;;;22.81;45.43
80585;BME280;70137;56.482;9.154;2023-08-24T11:32:44;101551.63;;;22.88;45.88
80585;BME280;70137;56.482;9.154;2023-08-24T11:35:13;101554.41;;;22.75;47.99
80585;BME280;70137;56.482;9.154;2023-08-24T11:37:39;101554.06;;;22.71;49.56
80585;BME280;70137;56.482;9.154;2023-08-24T11:40:06;101558.53;;;22.71;48.80
80585;BME280;70137;56.482;9.154;2023-08-24T11:42:41;101554.13;;;22.65;49.84
80585;BME280;70137;56.482;9.154;2023-08-24T11:45:11;101554.84;;;22.72;49.20
80585;BME280;70137;56.482;9.154;2023-08-24T11:47:38;101538.41;;;22.70;49.35
80585;BME280;70137;56.482;9.154;2023-08-24T11:50:03;101534.28;;;22.92;50.49
80585;BME280;70137;56.482;9.154;2023-08-24T11:52:29;101529.50;;;23.12;50.66
80585;BME280;70137;56.482;9.154;2023-08-24T11:54:54;101535.34;;;23.14;49.80
80585;BME280;70137;56.482;9.154;2023-08-24T11:57:23;101533.66;;;23.32;45.52
80585;BME280;70137;56.482;9.154;2023-08-24T11:59:51;101535.16;;;23.39;47.84
80585;BME280;70137;56.482;9.154;2023-08-24T12:02:17;101530.44;;;23.53;47.88
80585;BME280;70137;56.482;9.154;2023-08-24T12:04:43;101524.19;;;23.66;48.85
80585;BME280;70137;56.482;9.154;2023-08-24T12:07:12;101530.59;;;23.58;47.55
80585;BME280;70137;56.482;9.154;2023-08-24T12:09:41;101520.66;;;23.54;47.30
80585;BME280;70137;56.482;9.154;2023-08-24T12:12:17;101515.75;;;23.57;48.21
80585;BME280;70137;56.482;9.154;2023-08-24T12:14:44;101508.97;;;23.73;46.80
80585;BME280;70137;56.482;9.154;2023-08-24T12:17:10;101506.53;;;23.72;46.46
80585;BME280;70137;56.482;9.154;2023-08-24T12:19:36;101503.34;;;23.69;46.52
80585;BME280;70137;56.482;9.154;2023-08-24T12:22:01;101487.81;;;23.61;46.85
80585;BME280;70137;56.482;9.154;2023-08-24T12:24:28;101477.66;;;23.58;47.94
80585;BME280;70137;56.482;9.154;2023-08-24T12:26:57;101471.69;;;23.75;49.08
80585;BME280;70137;56.482;9.154;2023-08-24T12:29:23;101466.28;;;23.69;47.94
80585;BME280;70137;56.482;9.154;2023-08-24T12:31:48;101459.31;;;23.92;47.48
80585;BME280;70137;56.482;9.154;2023-08-24T12:34:15;101455.38;;;24.06;47.44
80585;BME280;70137;56.482;9.154;2023-08-24T12:36:42;101447.94;;;24.20;47.52
80585;BME280;70137;56.482;9.154;2023-08-24T12:39:11;101448.47;;;24.05;47.15
80585;BME280;70137;56.482;9.154;2023-08-24T12:41:38;101447.03;;;23.86;46.16
80585;BME280;70137;56.482;9.154;2023-08-24T12:44:04;101433.94;;;23.67;46.60
80585;BME280;70137;56.482;9.154;2023-08-24T12:46:34;101424.25;;;23.85;48.25
80585;BME280;70137;56.482;9.154;2023-08-24T12:49:00;101423.69;;;24.11;46.83
80585;BME280;70137;56.482;9.154;2023-08-24T12:51:26;101407.75;;;24.23;47.26
80585;BME280;70137;56.482;9.154;2023-08-24T12:53:51;101402.19;;;24.36;47.13
80585;BME280;70137;56.482;9.154;2023-08-24T12:56:17;101402.13;;;24.48;45.20
80585;BME280;70137;56.482;9.154;2023-08-24T12:58:42;101408.63;;;24.57;45.76